This is the latest recevied weather packets stored in our database for station/object DL4PY-13. If no packets are shown the sender has not sent any weather packets the latest 10 day(s).
| Time | Temp. | Humidity | Pressure | Rain* | Wind** | Luminosity | Snow |
|---|---|---|---|---|---|---|---|
| 1778331489 | 19.44° C | 45% | 1017.5 hPa | 0 mm | - | - | - |
| 1778330888 | 20° C | 45% | 1017.5 hPa | 0 mm | - | - | - |
| 1778330589 | 20° C | 45% | 1017.6 hPa | 0 mm | - | - | - |
| 1778330289 | 19.44° C | 44% | 1017.7 hPa | 0 mm | - | - | - |
| 1778329988 | 20° C | 46% | 1017.6 hPa | 0 mm | - | - | - |
| 1778329689 | 19.44° C | 45% | 1017.8 hPa | 0 mm | - | - | - |
| 1778329388 | 19.44° C | 46% | 1017.9 hPa | 0 mm | - | - | - |
| 1778329088 | 19.44° C | 46% | 1018.1 hPa | 0 mm | - | - | - |
| 1778328789 | 19.44° C | 46% | 1018.1 hPa | 0 mm | - | - | - |
| 1778328488 | 20° C | 45% | 1018 hPa | 0 mm | - | - | - |
| 1778328187 | 20° C | 47% | 1018 hPa | 0 mm | - | - | - |
| 1778327889 | 18.89° C | 48% | 1018.2 hPa | 0 mm | - | - | - |
| 1778327590 | 18.89° C | 47% | 1018.2 hPa | 0 mm | - | - | - |
| 1778327287 | 19.44° C | 48% | 1018.1 hPa | 0 mm | - | - | - |
| 1778326991 | 19.44° C | 49% | 1018.2 hPa | 0 mm | - | - | - |
| 1778326688 | 18.89° C | 50% | 1018.3 hPa | 0 mm | - | - | - |
| 1778326387 | 18.33° C | 51% | 1018.4 hPa | 0 mm | - | - | - |
| 1778326090 | 18.33° C | 51% | 1018.4 hPa | 0 mm | - | - | - |
| 1778325788 | 18.33° C | 51% | 1018.5 hPa | 0 mm | - | - | - |
| 1778325488 | 18.89° C | 50% | 1018.5 hPa | 0 mm | - | - | - |
| 1778325189 | 18.33° C | 50% | 1018.7 hPa | 0 mm | - | - | - |
| 1778324588 | 17.78° C | 51% | 1018.8 hPa | 0 mm | - | - | - |
| 1778324289 | 18.33° C | 53% | 1018.7 hPa | 0 mm | - | - | - |
| 1778323989 | 17.78° C | 55% | 1018.8 hPa | 0 mm | - | - | - |
| 1778323688 | 17.22° C | 55% | 1018.9 hPa | 0 mm | - | - | - |
* Rain latest hour (hover to see other rain measurements)
** Current wind speed in m/s (hover to see current wind gust speed)